| time (UTC) | temp F | wind direction | speed MPH | gust MPH | rain 1hr in | rain 24hr in | rain mn in | humidity % | barometer mb |
| 20260905091503 | 73 | 100 | 3.0 | 9.0 | 0.00 | 0.00 | 0.00 | 100 | 1012.9 |
| 20260905091003 | 73 | 104 | 4.0 | 7.0 | 0.00 | 0.00 | 0.00 | 100 | 1012.8 |
| 20260905090503 | 73 | 106 | 3.0 | 7.0 | 0.00 | 0.00 | 0.00 | 100 | 1013.0 |
| 20260905090003 | 73 | 89 | 4.0 | 7.0 | 0.00 | 0.00 | 0.00 | 100 | 1013.0 |
| 20260905085503 | 73 | 96 | 4.0 | 7.0 | 0.00 | 0.00 | 0.00 | 100 | 1013.0 |
| 20260905085003 | 74 | 104 | 4.0 | 6.0 | 0.00 | 0.00 | 0.00 | 100 | 1012.9 |
| 20260905084503 | 74 | 103 | 4.0 | 6.0 | 0.00 | 0.00 | 0.00 | 100 | 1012.9 |
| 20260905084003 | 74 | 103 | 1.0 | 4.0 | 0.00 | 0.00 | 0.00 | 100 | 1013.1 |
| 20260905083503 | 73 | 103 | 3.0 | 4.0 | 0.00 | 0.00 | 0.00 | 100 | 1013.2 |
| 20260905083003 | 73 | 103 | 2.0 | 6.0 | 0.00 | 0.00 | 0.00 | 100 | 1013.3 |
| 20260905082503 | 73 | 103 | 2.0 | 6.0 | 0.00 | 0.00 | 0.00 | 100 | 1012.8 |
| 20260905082003 | 73 | 103 | 2.0 | 5.0 | 0.00 | 0.00 | 0.00 | 100 | 1012.8 |
| 20260905081502 | 73 | 104 | 0.0 | 1.0 | 0.00 | 0.00 | 0.00 | 100 | 1012.8 |
| 20260905081003 | 73 | 103 | 0.0 | 3.0 | 0.00 | 0.00 | 0.00 | 100 | 1012.9 |
| 20260905080503 | 73 | 103 | 0.0 | 7.0 | 0.00 | 0.00 | 0.00 | 100 | 1012.9 |
| 20260905080003 | 73 | 103 | 2.0 | 7.0 | 0.00 | 0.00 | 0.00 | 100 | 1012.5 |
| 20260905075503 | 73 | 96 | 4.0 | 9.0 | 0.00 | 0.00 | 0.00 | 100 | 1012.2 |
| 20260905075003 | 73 | 96 | 5.0 | 9.0 | 0.00 | 0.00 | 0.00 | 100 | 1012.2 |
| 20260905074503 | 73 | 98 | 4.0 | 8.0 | 0.00 | 0.00 | 0.00 | 100 | 1012.5 |
| 20260905074003 | 73 | 92 | 4.0 | 8.0 | 0.00 | 0.00 | 0.00 | 100 | 1012.7 |
| 20260905073503 | 72 | 74 | 3.0 | 8.0 | 0.00 | 0.00 | 0.00 | 100 | 1012.9 |
| 20260905073003 | 72 | 102 | 4.0 | 8.0 | 0.00 | 0.00 | 0.00 | 100 | 1012.7 |
| 20260905072503 | 72 | 93 | 4.0 | 7.0 | 0.00 | 0.00 | 0.00 | 100 | 1012.8 |
| 20260905072003 | 72 | 90 | 4.0 | 7.0 | 0.00 | 0.00 | 0.00 | 100 | 1012.7 |
| 20260905071503 | 72 | 100 | 5.0 | 7.0 | 0.00 | 0.00 | 0.00 | 100 | 1012.8 |
| 20260905071003 | 71 | 99 | 4.0 | 7.0 | 0.00 | 0.00 | 0.00 | 100 | 1012.9 |
| 20260905070503 | 71 | 61 | 2.0 | 5.0 | 0.00 | 0.00 | 0.00 | 100 | 1012.9 |
| 20260905070004 | 71 | 61 | 1.0 | 5.0 | 0.00 | 0.00 | 0.00 | 100 | 1013.1 |
| 20260905065503 | 71 | 101 | 1.0 | 3.0 | 0.00 | 0.00 | 0.00 | 100 | 1013.2 |
| 20260905065003 | 71 | 101 | 1.0 | 4.0 | 0.00 | 0.00 | 0.00 | 100 | 1013.3 |
| 20260905064503 | 71 | 101 | 1.0 | 4.0 | 0.00 | 0.00 | 0.00 | 100 | 1013.3 |
| 20260905064002 | 70 | 101 | 1.0 | 3.0 | 0.00 | 0.00 | 0.00 | 100 | 1013.3 |
| 20260905063503 | 70 | 101 | 2.0 | 3.0 | 0.00 | 0.00 | 0.00 | 100 | 1013.2 |
| 20260905063003 | 71 | 101 | 1.0 | 2.0 | 0.00 | 0.00 | 0.00 | 100 | 1013.4 |
| 20260905062503 | 71 | 101 | 0.0 | 2.0 | 0.00 | 0.00 | 0.00 | 100 | 1013.4 |
| 20260905062003 | 71 | 101 | 0.0 | 2.0 | 0.00 | 0.00 | 0.00 | 100 | 1013.3 |
| 20260905061503 | 71 | 101 | 0.0 | 2.0 | 0.00 | 0.00 | 0.00 | 100 | 1013.1 |
| 20260905061003 | 71 | 101 | 0.0 | 2.0 | 0.00 | 0.00 | 0.00 | 100 | 1013.3 |
| 20260905060503 | 71 | 101 | 1.0 | 4.0 | 0.00 | 0.00 | 0.00 | 100 | 1013.2 |
| 20260905060003 | 71 | 101 | 1.0 | 4.0 | 0.00 | 0.00 | 0.00 | 100 | 1013.2 |
| 20260905055503 | 71 | 101 | 2.0 | 4.0 | 0.00 | 0.00 | 0.00 | 100 | 1013.2 |
| 20260905055003 | 71 | 101 | 0.0 | 0.0 | 0.00 | 0.00 | 0.00 | 100 | 1013.2 |
| 20260905054503 | 71 | 101 | 0.0 | 0.0 | 0.00 | 0.00 | 0.00 | 100 | 1013.2 |
| 20260905054003 | 71 | 101 | 0.0 | 0.0 | 0.00 | 0.00 | 0.00 | 100 | 1013.2 |
| 20260905053502 | 71 | 101 | 0.0 | 0.0 | 0.00 | 0.00 | 0.00 | 100 | 1013.2 |
| 20260905053003 | 71 | 101 | 0.0 | 0.0 | 0.00 | 0.00 | 0.00 | 100 | 1013.1 |
| 20260905052503 | 71 | 101 | 0.0 | 0.0 | 0.00 | 0.00 | 0.00 | 100 | 1013.1 |
| 20260905052003 | 71 | 101 | 0.0 | 0.0 | 0.00 | 0.00 | 0.00 | 100 | 1013.0 |
| 20260905051503 | 72 | 101 | 0.0 | 0.0 | 0.00 | 0.00 | 0.00 | 100 | 1012.9 |
| 20260905051003 | 72 | 101 | 0.0 | 0.0 | 0.00 | 0.00 | 0.00 | 99 | 1012.8 |
| 20260905050503 | 72 | 101 | 0.0 | 0.0 | 0.00 | 0.00 | 0.00 | 99 | 1012.8 |
| 20260905050002 | 72 | 101 | 0.0 | 0.0 | 0.00 | 0.00 | 0.00 | 99 | 1013.0 |
| 20260905045503 | 72 | 101 | 0.0 | 1.0 | 0.00 | 0.00 | 0.00 | 99 | 1012.8 |
| 20260905045002 | 72 | 101 | 0.0 | 4.0 | 0.00 | 0.00 | 0.00 | 98 | 1012.9 |
| 20260905044503 | 73 | 101 | 1.0 | 4.0 | 0.00 | 0.00 | 0.00 | 98 | 1012.8 |
| 20260905044003 | 73 | 101 | 1.0 | 3.0 | 0.00 | 0.00 | 0.00 | 98 | 1012.7 |
| 20260905043503 | 73 | 101 | 1.0 | 2.0 | 0.00 | 0.00 | 0.00 | 98 | 1012.7 |
| 20260905043003 | 73 | 101 | 0.0 | 1.0 | 0.00 | 0.00 | 0.00 | 98 | 1012.7 |
| 20260905042503 | 73 | 101 | 0.0 | 2.0 | 0.00 | 0.00 | 0.00 | 97 | 1012.7 |
| 20260905042003 | 73 | 101 | 1.0 | 2.0 | 0.00 | 0.00 | 0.00 | 97 | 1012.7 |
| 20260905041503 | 73 | 101 | 0.0 | 2.0 | 0.00 | 0.00 | 0.00 | 97 | 1012.7 |
| 20260905041003 | 73 | 101 | 1.0 | 4.0 | 0.00 | 0.00 | 0.00 | 97 | 1012.7 |
| 20260905040502 | 73 | 101 | 1.0 | 4.0 | 0.00 | 0.00 | 0.00 | 97 | 1012.7 |
| 20260905040003 | 73 | 101 | 3.0 | 5.0 | 0.00 | 0.00 | 0.00 | 96 | 1012.8 |
| 20260905035502 | 73 | 101 | 3.0 | 7.0 | 0.00 | 0.00 | 0.00 | 96 | 1012.8 |
| 20260905035003 | 74 | 101 | 3.0 | 7.0 | 0.00 | 0.00 | 0.00 | 96 | 1012.8 |
| 20260905034502 | 74 | 110 | 3.0 | 6.0 | 0.00 | 0.00 | 0.00 | 96 | 1012.8 |
| 20260905034003 | 74 | 97 | 3.0 | 6.0 | 0.00 | 0.00 | 0.00 | 96 | 1012.9 |
| 20260905033503 | 74 | 102 | 3.0 | 6.0 | 0.00 | 0.00 | 0.00 | 96 | 1013.0 |
| 20260905033003 | 74 | 102 | 2.0 | 7.0 | 0.00 | 0.00 | 0.00 | 96 | 1012.9 |
| 20260905032503 | 74 | 102 | 3.0 | 7.0 | 0.00 | 0.00 | 0.00 | 96 | 1012.9 |
| 20260905032003 | 74 | 101 | 3.0 | 6.0 | 0.00 | 0.00 | 0.00 | 95 | 1012.9 |
| 20260905031503 | 74 | 87 | 2.0 | 5.0 | 0.00 | 0.00 | 0.00 | 95 | 1012.8 |
| 20260905031003 | 74 | 87 | 2.0 | 5.0 | 0.00 | 0.00 | 0.00 | 95 | 1012.8 |
| 20260905030503 | 75 | 61 | 3.0 | 5.0 | 0.00 | 0.00 | 0.00 | 94 | 1012.7 |
| 20260905030003 | 75 | 98 | 2.0 | 5.0 | 0.00 | 0.00 | 0.00 | 94 | 1012.7 |
| 20260905025503 | 75 | 104 | 3.0 | 7.0 | 0.00 | 0.00 | 0.00 | 94 | 1012.6 |
| 20260905025002 | 75 | 103 | 4.0 | 8.0 | 0.00 | 0.00 | 0.00 | 94 | 1012.5 |
| 20260905024503 | 75 | 96 | 4.0 | 8.0 | 0.00 | 0.00 | 0.00 | 93 | 1012.5 |
| 20260905024003 | 75 | 89 | 1.0 | 4.0 | 0.00 | 0.00 | 0.00 | 92 | 1012.6 |
| 20260905023503 | 75 | 89 | 1.0 | 4.0 | 0.00 | 0.00 | 0.00 | 92 | 1012.5 |
| 20260905023003 | 76 | 74 | 2.0 | 5.0 | 0.00 | 0.00 | 0.00 | 92 | 1012.5 |
| 20260905022503 | 76 | 47 | 2.0 | 5.0 | 0.00 | 0.00 | 0.00 | 91 | 1012.4 |
| 20260905022003 | 76 | 81 | 2.0 | 5.0 | 0.00 | 0.00 | 0.00 | 90 | 1012.3 |
| 20260905021503 | 76 | 50 | 3.0 | 5.0 | 0.00 | 0.00 | 0.00 | 89 | 1012.2 |
| 20260905021003 | 76 | 44 | 1.0 | 5.0 | 0.00 | 0.00 | 0.00 | 89 | 1012.2 |
| 20260905020503 | 77 | 134 | 2.0 | 5.0 | 0.00 | 0.00 | 0.00 | 88 | 1012.2 |
| 20260905020003 | 77 | 48 | 1.0 | 3.0 | 0.00 | 0.00 | 0.00 | 87 | 1012.1 |
| 20260905015502 | 78 | 48 | 0.0 | 5.0 | 0.00 | 0.00 | 0.00 | 86 | 1012.1 |
| 20260905015003 | 78 | 48 | 1.0 | 6.0 | 0.00 | 0.00 | 0.00 | 86 | 1012.0 |
| 20260905014502 | 78 | 53 | 3.0 | 6.0 | 0.00 | 0.00 | 0.00 | 85 | 1011.8 |
| 20260905014003 | 79 | 69 | 2.0 | 6.0 | 0.00 | 0.00 | 0.00 | 84 | 1011.8 |
| 20260905013503 | 79 | 115 | 2.0 | 7.0 | 0.00 | 0.00 | 0.00 | 83 | 1011.8 |
| 20260905013003 | 79 | 115 | 3.0 | 8.0 | 0.00 | 0.00 | 0.00 | 83 | 1011.7 |
| 20260905012502 | 80 | 100 | 3.0 | 8.0 | 0.00 | 0.00 | 0.00 | 82 | 1011.6 |
| 20260905012003 | 80 | 113 | 3.0 | 7.0 | 0.00 | 0.00 | 0.00 | 81 | 1011.6 |
| 20260905011503 | 80 | 106 | 2.0 | 9.0 | 0.00 | 0.00 | 0.00 | 81 | 1011.6 |
| 20260905011003 | 81 | 94 | 3.0 | 9.0 | 0.00 | 0.00 | 0.00 | 80 | 1011.6 |
| 20260905010503 | 81 | 98 | 4.0 | 9.0 | 0.00 | 0.00 | 0.00 | 79 | 1011.5 |
| 20260905010003 | 81 | 90 | 5.0 | 9.0 | 0.00 | 0.00 | 0.00 | 79 | 1011.4 |
| 20260905005503 | 82 | 95 | 6.0 | 9.0 | 0.00 | 0.00 | 0.00 | 78 | 1011.5 |
| 20260905005003 | 82 | 98 | 6.0 | 9.0 | 0.00 | 0.00 | 0.00 | 77 | 1011.4 |
| 20260905004503 | 82 | 98 | 4.0 | 8.0 | 0.00 | 0.00 | 0.00 | 77 | 1011.4 |
| 20260905004002 | 83 | 92 | 5.0 | 8.0 | 0.00 | 0.00 | 0.00 | 76 | 1011.4 |
| 20260905003503 | 83 | 90 | 5.0 | 10.0 | 0.00 | 0.00 | 0.00 | 75 | 1011.5 |
| 20260905003002 | 83 | 100 | 4.0 | 10.0 | 0.00 | 0.00 | 0.00 | 74 | 1011.5 |
| 20260905002503 | 83 | 91 | 5.0 | 8.0 | 0.00 | 0.00 | 0.00 | 73 | 1011.3 |
| 20260905002003 | 84 | 94 | 5.0 | 9.0 | 0.00 | 0.00 | 0.00 | 72 | 1011.3 |
| 20260905001503 | 84 | 89 | 5.0 | 9.0 | 0.00 | 0.00 | 0.00 | 71 | 1011.3 |
| 20260905001003 | 84 | 100 | 5.0 | 8.0 | 0.00 | 0.00 | 0.00 | 70 | 1011.2 |
| 20260905000503 | 85 | 100 | 4.0 | 9.0 | 0.00 | 0.00 | 0.00 | 69 | 1011.2 |
| 20260905000003 | 85 | 95 | 5.0 | 10.0 | 0.00 | 0.00 | 0.00 | 68 | 1011.1 |
| 20260904235503 | 85 | 90 | 6.0 | 10.0 | 0.00 | 0.00 | 0.00 | 67 | 1011.1 |
| 20260904235003 | 85 | 92 | 5.0 | 9.0 | 0.00 | 0.00 | 0.00 | 67 | 1011.2 |
| 20260904234503 | 86 | 98 | 6.0 | 10.0 | 0.00 | 0.00 | 0.00 | 65 | 1011.2 |
| 20260904234003 | 86 | 92 | 6.0 | 10.0 | 0.00 | 0.00 | 0.00 | 64 | 1011.3 |
| 20260904233503 | 86 | 96 | 6.0 | 9.0 | 0.00 | 0.00 | 0.00 | 64 | 1011.3 |
| 20260904233003 | 86 | 104 | 6.0 | 10.0 | 0.00 | 0.00 | 0.00 | 64 | 1011.4 |
| 20260904232503 | 86 | 85 | 6.0 | 11.0 | 0.00 | 0.00 | 0.00 | 63 | 1011.3 |
| 20260904232003 | 86 | 92 | 6.0 | 12.0 | 0.00 | 0.00 | 0.00 | 64 | 1011.3 |
| 20260904231502 | 87 | 105 | 7.0 | 12.0 | 0.00 | 0.00 | 0.00 | 63 | 1011.2 |
| 20260904231003 | 87 | 100 | 6.0 | 11.0 | 0.00 | 0.00 | 0.00 | 62 | 1011.1 |
| 20260904230503 | 87 | 88 | 5.0 | 12.0 | 0.00 | 0.00 | 0.00 | 61 | 1011.2 |
| 20260904230003 | 87 | 97 | 7.0 | 12.0 | 0.00 | 0.00 | 0.00 | 60 | 1011.0 |
| 20260904225503 | 87 | 100 | 6.0 | 11.0 | 0.00 | 0.00 | 0.00 | 61 | 1011.1 |
| 20260904225003 | 88 | 95 | 6.0 | 9.0 | 0.00 | 0.00 | 0.00 | 61 | 1011.2 |
| 20260904224503 | 88 | 93 | 5.0 | 12.0 | 0.00 | 0.00 | 0.00 | 60 | 1011.3 |
| 20260904224003 | 88 | 81 | 5.0 | 13.0 | 0.00 | 0.00 | 0.00 | 59 | 1011.2 |
| 20260904223503 | 88 | 94 | 7.0 | 13.0 | 0.00 | 0.00 | 0.00 | 59 | 1011.1 |
| 20260904223003 | 88 | 95 | 8.0 | 12.0 | 0.00 | 0.00 | 0.00 | 58 | 1011.2 |
| 20260904222503 | 88 | 90 | 7.0 | 11.0 | 0.00 | 0.00 | 0.00 | 57 | 1011.3 |
| 20260904222003 | 88 | 98 | 8.0 | 11.0 | 0.00 | 0.00 | 0.00 | 57 | 1011.3 |
| 20260904221503 | 89 | 99 | 7.0 | 12.0 | 0.00 | 0.00 | 0.00 | 56 | 1011.4 |
| 20260904221003 | 89 | 96 | 8.0 | 12.0 | 0.00 | 0.00 | 0.00 | 56 | 1011.4 |
| 20260904220503 | 89 | 79 | 4.0 | 12.0 | 0.00 | 0.00 | 0.00 | 56 | 1011.5 |
| 20260904220003 | 89 | 87 | 5.0 | 10.0 | 0.00 | 0.00 | 0.00 | 56 | 1011.4 |
| 20260904215503 | 89 | 96 | 6.0 | 10.0 | 0.00 | 0.00 | 0.00 | 55 | 1011.4 |
| 20260904215003 | 89 | 94 | 5.0 | 10.0 | 0.00 | 0.00 | 0.00 | 55 | 1011.4 |
| 20260904214503 | 89 | 95 | 6.0 | 11.0 | 0.00 | 0.00 | 0.00 | 55 | 1011.5 |
| 20260904214002 | 89 | 94 | 7.0 | 11.0 | 0.00 | 0.00 | 0.00 | 56 | 1011.5 |
| 20260904213503 | 89 | 102 | 6.0 | 11.0 | 0.00 | 0.00 | 0.00 | 55 | 1011.5 |
| 20260904213002 | 89 | 88 | 5.0 | 10.0 | 0.00 | 0.00 | 0.00 | 55 | 1011.6 |
| 20260904212503 | 89 | 100 | 7.0 | 10.0 | 0.00 | 0.00 | 0.00 | 53 | 1011.5 |
| 20260904212002 | 90 | 97 | 6.0 | 9.0 | 0.00 | 0.00 | 0.00 | 53 | 1011.4 |
| 20260904211503 | 90 | 96 | 5.0 | 10.0 | 0.00 | 0.00 | 0.00 | 52 | 1011.4 |
| 20260904211002 | 90 | 97 | 6.0 | 10.0 | 0.00 | 0.00 | 0.00 | 52 | 1011.4 |
| 20260904210503 | 90 | 83 | 5.0 | 9.0 | 0.00 | 0.00 | 0.00 | 52 | 1011.6 |
| 20260904210002 | 90 | 95 | 5.0 | 10.0 | 0.00 | 0.00 | 0.00 | 51 | 1011.5 |
| 20260904205503 | 90 | 76 | 5.0 | 10.0 | 0.00 | 0.00 | 0.00 | 51 | 1011.5 |
| 20260904205002 | 90 | 68 | 4.0 | 8.0 | 0.00 | 0.00 | 0.00 | 51 | 1011.6 |
| 20260904204503 | 90 | 92 | 4.0 | 8.0 | 0.00 | 0.00 | 0.00 | 50 | 1011.6 |
| 20260904204003 | 90 | 104 | 5.0 | 9.0 | 0.00 | 0.00 | 0.00 | 50 | 1011.5 |
| 20260904203503 | 90 | 96 | 4.0 | 10.0 | 0.00 | 0.00 | 0.00 | 50 | 1011.6 |
| 20260904203002 | 90 | 102 | 6.0 | 10.0 | 0.00 | 0.00 | 0.00 | 50 | 1011.5 |
| 20260904202503 | 91 | 88 | 4.0 | 10.0 | 0.00 | 0.00 | 0.00 | 48 | 1011.6 |
| 20260904202002 | 90 | 103 | 5.0 | 11.0 | 0.00 | 0.00 | 0.00 | 46 | 1011.5 |
| 20260904201503 | 90 | 97 | 6.0 | 11.0 | 0.00 | 0.00 | 0.00 | 48 | 1011.5 |
| 20260904201003 | 90 | 99 | 6.0 | 11.0 | 0.00 | 0.00 | 0.00 | 48 | 1011.4 |
| 20260904200503 | 90 | 101 | 6.0 | 11.0 | 0.00 | 0.00 | 0.00 | 46 | 1011.5 |
| 20260904200003 | 90 | 101 | 8.0 | 11.0 | 0.00 | 0.00 | 0.00 | 46 | 1011.5 |
| 20260904195503 | 90 | 88 | 5.0 | 9.0 | 0.00 | 0.00 | 0.00 | 48 | 1011.5 |
| 20260904195003 | 90 | 104 | 5.0 | 9.0 | 0.00 | 0.00 | 0.00 | 48 | 1011.5 |
| 20260904194503 | 90 | 93 | 4.0 | 9.0 | 0.00 | 0.00 | 0.00 | 50 | 1011.5 |
| 20260904194003 | 90 | 88 | 4.0 | 10.0 | 0.00 | 0.00 | 0.00 | 49 | 1011.5 |
| 20260904193502 | 90 | 80 | 5.0 | 10.0 | 0.00 | 0.00 | 0.00 | 50 | 1011.6 |
| 20260904193003 | 90 | 87 | 6.0 | 10.0 | 0.00 | 0.00 | 0.00 | 50 | 1011.7 |
| 20260904192503 | 90 | 97 | 7.0 | 10.0 | 0.00 | 0.00 | 0.00 | 46 | 1011.7 |
| 20260904192003 | 90 | 93 | 5.0 | 10.0 | 0.00 | 0.00 | 0.00 | 48 | 1011.6 |
| 20260904191502 | 90 | 103 | 7.0 | 10.0 | 0.00 | 0.00 | 0.00 | 48 | 1011.6 |
| 20260904191003 | 90 | 99 | 6.0 | 10.0 | 0.00 | 0.00 | 0.00 | 48 | 1011.8 |
| 20260904190503 | 90 | 95 | 5.0 | 10.0 | 0.00 | 0.00 | 0.00 | 47 | 1011.8 |
| 20260904190003 | 90 | 95 | 5.0 | 10.0 | 0.00 | 0.00 | 0.00 | 48 | 1011.9 |
| 20260904185503 | 90 | 98 | 7.0 | 10.0 | 0.00 | 0.00 | 0.00 | 47 | 1011.9 |
| 20260904185003 | 90 | 104 | 5.0 | 9.0 | 0.00 | 0.00 | 0.00 | 47 | 1011.9 |
| 20260904184503 | 90 | 97 | 6.0 | 11.0 | 0.00 | 0.00 | 0.00 | 47 | 1011.8 |
| 20260904184003 | 90 | 104 | 7.0 | 11.0 | 0.00 | 0.00 | 0.00 | 46 | 1011.9 |
| 20260904183503 | 90 | 100 | 7.0 | 11.0 | 0.00 | 0.00 | 0.00 | 46 | 1011.7 |
| 20260904183003 | 90 | 88 | 5.0 | 11.0 | 0.00 | 0.00 | 0.00 | 48 | 1011.9 |
| 20260904182503 | 90 | 94 | 6.0 | 10.0 | 0.00 | 0.00 | 0.00 | 48 | 1011.9 |
| 20260904182003 | 90 | 99 | 7.0 | 10.0 | 0.00 | 0.00 | 0.00 | 48 | 1011.8 |
| 20260904181503 | 90 | 81 | 5.0 | 11.0 | 0.00 | 0.00 | 0.00 | 49 | 1012.0 |
| 20260904181003 | 90 | 88 | 5.0 | 12.0 | 0.00 | 0.00 | 0.00 | 48 | 1011.9 |
| 20260904180503 | 90 | 99 | 6.0 | 12.0 | 0.00 | 0.00 | 0.00 | 48 | 1011.7 |
| 20260904180002 | 90 | 89 | 7.0 | 11.0 | 0.00 | 0.00 | 0.00 | 48 | 1011.7 |
| 20260904175503 | 90 | 99 | 6.0 | 11.0 | 0.00 | 0.00 | 0.00 | 47 | 1011.8 |
| 20260904175003 | 90 | 94 | 6.0 | 10.0 | 0.00 | 0.00 | 0.00 | 48 | 1011.8 |
| 20260904174503 | 90 | 75 | 4.0 | 10.0 | 0.00 | 0.00 | 0.00 | 52 | 1011.7 |
| 20260904174003 | 90 | 82 | 6.0 | 10.0 | 0.00 | 0.00 | 0.00 | 50 | 1011.7 |
| 20260904173503 | 89 | 97 | 6.0 | 10.0 | 0.00 | 0.00 | 0.00 | 50 | 1011.7 |
| 20260904173003 | 89 | 96 | 5.0 | 11.0 | 0.00 | 0.00 | 0.00 | 52 | 1011.7 |
| 20260904172503 | 89 | 94 | 6.0 | 11.0 | 0.00 | 0.00 | 0.00 | 54 | 1011.7 |
| 20260904172003 | 89 | 76 | 6.0 | 11.0 | 0.00 | 0.00 | 0.00 | 55 | 1011.6 |
| 20260904171503 | 89 | 93 | 4.0 | 11.0 | 0.00 | 0.00 | 0.00 | 57 | 1011.5 |
| 20260904171003 | 88 | 82 | 4.0 | 9.0 | 0.00 | 0.00 | 0.00 | 58 | 1011.5 |
| 20260904170503 | 88 | 100 | 4.0 | 11.0 | 0.00 | 0.00 | 0.00 | 59 | 1011.5 |
| 20260904170003 | 88 | 91 | 5.0 | 11.0 | 0.00 | 0.00 | 0.00 | 60 | 1011.5 |
| 20260904165503 | 88 | 79 | 4.0 | 9.0 | 0.00 | 0.00 | 0.00 | 59 | 1011.5 |
| 20260904165003 | 87 | 84 | 4.0 | 9.0 | 0.00 | 0.00 | 0.00 | 59 | 1011.3 |
| 20260904164503 | 87 | 59 | 3.0 | 10.0 | 0.00 | 0.00 | 0.00 | 63 | 1011.4 |
| 20260904164003 | 86 | 97 | 7.0 | 10.0 | 0.00 | 0.00 | 0.00 | 63 | 1011.3 |
| 20260904163503 | 86 | 89 | 4.0 | 7.0 | 0.00 | 0.00 | 0.00 | 66 | 1011.3 |
| 20260904163003 | 85 | 57 | 3.0 | 6.0 | 0.00 | 0.00 | 0.00 | 66 | 1011.4 |
| 20260904162502 | 85 | 72 | 3.0 | 6.0 | 0.00 | 0.00 | 0.00 | 67 | 1011.3 |
| 20260904162003 | 84 | 76 | 4.0 | 6.0 | 0.00 | 0.00 | 0.00 | 68 | 1011.3 |
| 20260904161502 | 84 | 82 | 3.0 | 6.0 | 0.00 | 0.00 | 0.00 | 73 | 1011.3 |
| 20260904161003 | 83 | 56 | 3.0 | 7.0 | 0.00 | 0.00 | 0.00 | 79 | 1011.3 |
| 20260904160502 | 83 | 51 | 3.0 | 7.0 | 0.00 | 0.00 | 0.00 | 81 | 1011.3 |
| 20260904160003 | 82 | 71 | 3.0 | 7.0 | 0.00 | 0.00 | 0.00 | 82 | 1011.3 |
| 20260904155502 | 82 | 59 | 3.0 | 6.0 | 0.00 | 0.00 | 0.00 | 83 | 1011.3 |
| 20260904155003 | 81 | 67 | 1.0 | 5.0 | 0.00 | 0.00 | 0.00 | 84 | 1011.3 |
| 20260904154502 | 81 | 85 | 2.0 | 5.0 | 0.00 | 0.00 | 0.00 | 85 | 1011.2 |
| 20260904154003 | 80 | 85 | 3.0 | 5.0 | 0.00 | 0.00 | 0.00 | 86 | 1011.2 |
| 20260904153502 | 80 | 63 | 2.0 | 4.0 | 0.00 | 0.00 | 0.00 | 88 | 1011.3 |
| 20260904153003 | 79 | 55 | 1.0 | 4.0 | 0.00 | 0.00 | 0.00 | 89 | 1011.3 |
| 20260904152503 | 78 | 57 | 1.0 | 3.0 | 0.00 | 0.00 | 0.00 | 90 | 1011.2 |
| 20260904152003 | 78 | 57 | 0.0 | 3.0 | 0.00 | 0.00 | 0.00 | 90 | 1011.2 |
| 20260904151502 | 78 | 57 | 0.0 | 5.0 | 0.00 | 0.00 | 0.00 | 91 | 1011.1 |
| 20260904151003 | 78 | 57 | 3.0 | 5.0 | 0.00 | 0.00 | 0.00 | 90 | 1011.1 |
| 20260904150502 | 77 | 75 | 3.0 | 5.0 | 0.00 | 0.00 | 0.00 | 91 | 1011.1 |
| 20260904150003 | 77 | 112 | 2.0 | 4.0 | 0.00 | 0.00 | 0.00 | 93 | 1011.1 |
| 20260904145502 | 76 | 112 | 2.0 | 3.0 | 0.00 | 0.00 | 0.00 | 93 | 1011.1 |
| 20260904145003 | 76 | 112 | 0.0 | 3.0 | 0.00 | 0.00 | 0.00 | 95 | 1011.1 |
| 20260904144502 | 76 | 112 | 0.0 | 3.0 | 0.00 | 0.00 | 0.00 | 95 | 1011.1 |
| 20260904144003 | 75 | 112 | 0.0 | 2.0 | 0.00 | 0.00 | 0.00 | 95 | 1010.9 |
| 20260904143502 | 75 | 112 | 0.0 | 2.0 | 0.00 | 0.00 | 0.00 | 96 | 1011.0 |
| 20260904143003 | 75 | 112 | 0.0 | 3.0 | 0.00 | 0.00 | 0.00 | 97 | 1010.9 |
| 20260904142503 | 75 | 112 | 1.0 | 3.0 | 0.00 | 0.00 | 0.00 | 97 | 1010.8 |
| 20260904142003 | 74 | 112 | 0.0 | 3.0 | 0.00 | 0.00 | 0.00 | 98 | 1010.7 |
| 20260904141503 | 74 | 112 | 1.0 | 3.0 | 0.00 | 0.00 | 0.00 | 99 | 1010.9 |
| 20260904141003 | 73 | 112 | 0.0 | 1.0 | 0.00 | 0.00 | 0.00 | 100 | 1010.9 |
| 20260904140503 | 73 | 112 | 0.0 | 1.0 | 0.00 | 0.00 | 0.00 | 100 | 1010.9 |
| 20260904140003 | 72 | 112 | 0.0 | 0.0 | 0.00 | 0.00 | 0.00 | 100 | 1010.9 |
| 20260904135503 | 72 | 112 | 0.0 | 1.0 | 0.00 | 0.00 | 0.00 | 100 | 1010.9 |
| 20260904135003 | 72 | 112 | 0.0 | 1.0 | 0.00 | 0.00 | 0.00 | 100 | 1010.9 |
| 20260904134503 | 71 | 112 | 0.0 | 1.0 | 0.00 | 0.00 | 0.00 | 100 | 1010.7 |
| 20260904134003 | 71 | 112 | 0.0 | 1.0 | 0.00 | 0.00 | 0.00 | 100 | 1010.7 |
| 20260904133503 | 71 | 112 | 0.0 | 0.0 | 0.00 | 0.00 | 0.00 | 100 | 1010.7 |
| 20260904133003 | 71 | 112 | 0.0 | 0.0 | 0.00 | 0.00 | 0.00 | 100 | 1010.8 |
| 20260904132503 | 71 | 112 | 0.0 | 0.0 | 0.00 | 0.00 | 0.00 | 100 | 1010.8 |
| 20260904132002 | 70 | 112 | 0.0 | 1.0 | 0.00 | 0.00 | 0.00 | 100 | 1010.7 |
| 20260904131503 | 70 | 112 | 0.0 | 1.0 | 0.00 | 0.00 | 0.00 | 100 | 1010.6 |
| 20260904131002 | 69 | 112 | 0.0 | 1.0 | 0.00 | 0.00 | 0.00 | 100 | 1010.6 |
| 20260904130503 | 69 | 112 | 0.0 | 1.0 | 0.00 | 0.00 | 0.00 | 100 | 1010.5 |
| 20260904130003 | 68 | 112 | 0.0 | 1.0 | 0.00 | 0.00 | 0.00 | 100 | 1010.5 |
| 20260904125503 | 68 | 112 | 0.0 | 0.0 | 0.00 | 0.00 | 0.00 | 100 | 1010.4 |
| 20260904125003 | 67 | 112 | 0.0 | 0.0 | 0.00 | 0.00 | 0.00 | 100 | 1010.5 |
| 20260904124503 | 67 | 112 | 0.0 | 0.0 | 0.00 | 0.00 | 0.00 | 100 | 1010.3 |
| 20260904124003 | 66 | 112 | 0.0 | 0.0 | 0.00 | 0.00 | 0.00 | 100 | 1010.3 |
| 20260904123503 | 66 | 112 | 0.0 | 0.0 | 0.00 | 0.00 | 0.00 | 100 | 1010.3 |
| 20260904123003 | 66 | 112 | 0.0 | 0.0 | 0.00 | 0.00 | 0.00 | 100 | 1010.2 |
| 20260904122503 | 66 | 112 | 0.0 | 0.0 | 0.00 | 0.00 | 0.00 | 100 | 1010.2 |
| 20260904122003 | 66 | 112 | 0.0 | 0.0 | 0.00 | 0.00 | 0.00 | 100 | 1010.1 |
| 20260904121502 | 66 | 112 | 0.0 | 0.0 | 0.00 | 0.00 | 0.00 | 100 | 1010.1 |
| 20260904121003 | 66 | 112 | 0.0 | 0.0 | 0.00 | 0.00 | 0.00 | 100 | 1010.1 |
| 20260904120503 | 66 | 112 | 0.0 | 0.0 | 0.00 | 0.00 | 0.00 | 100 | 1010.1 |
| 20260904120003 | 66 | 112 | 0.0 | 0.0 | 0.00 | 0.00 | 0.00 | 100 | 1010.1 |
| 20260904115503 | 66 | 112 | 0.0 | 0.0 | 0.00 | 0.00 | 0.00 | 100 | 1009.9 |
| 20260904115003 | 66 | 112 | 0.0 | 0.0 | 0.00 | 0.00 | 0.00 | 100 | 1009.9 |
| 20260904114503 | 66 | 112 | 0.0 | 0.0 | 0.00 | 0.00 | 0.00 | 100 | 1009.8 |
| 20260904114003 | 67 | 112 | 0.0 | 1.0 | 0.00 | 0.00 | 0.00 | 100 | 1009.8 |
| 20260904113503 | 67 | 112 | 0.0 | 1.0 | 0.00 | 0.00 | 0.00 | 100 | 1009.9 |
| 20260904113003 | 67 | 112 | 0.0 | 1.0 | 0.00 | 0.00 | 0.00 | 100 | 1009.9 |
| 20260904112503 | 67 | 112 | 0.0 | 1.0 | 0.00 | 0.00 | 0.00 | 100 | 1009.7 |
| 20260904112002 | 67 | 112 | 0.0 | 1.0 | 0.00 | 0.00 | 0.00 | 100 | 1009.6 |
| 20260904111503 | 67 | 112 | 0.0 | 1.0 | 0.00 | 0.00 | 0.00 | 100 | 1009.5 |
| 20260904111002 | 66 | 112 | 0.0 | 2.0 | 0.00 | 0.00 | 0.00 | 100 | 1009.5 |
| 20260904110503 | 66 | 112 | 0.0 | 2.0 | 0.00 | 0.00 | 0.00 | 100 | 1009.5 |
| 20260904110003 | 66 | 112 | 1.0 | 2.0 | 0.00 | 0.00 | 0.00 | 100 | 1009.5 |
| 20260904105503 | 66 | 150 | 0.0 | 2.0 | 0.00 | 0.00 | 0.00 | 100 | 1009.5 |
| 20260904105003 | 66 | 150 | 0.0 | 2.0 | 0.00 | 0.00 | 0.00 | 100 | 1009.4 |
| 20260904104503 | 66 | 150 | 0.0 | 2.0 | 0.00 | 0.00 | 0.00 | 100 | 1009.4 |
| 20260904104002 | 67 | 150 | 0.0 | 2.0 | 0.00 | 0.00 | 0.00 | 100 | 1009.3 |
| 20260904103503 | 67 | 150 | 0.0 | 2.0 | 0.00 | 0.00 | 0.00 | 100 | 1009.3 |
| 20260904103003 | 67 | 150 | 0.0 | 2.0 | 0.00 | 0.00 | 0.00 | 100 | 1009.4 |
| 20260904102503 | 67 | 150 | 1.0 | 2.0 | 0.00 | 0.00 | 0.00 | 100 | 1009.4 |
| 20260904102003 | 67 | 150 | 0.0 | 1.0 | 0.00 | 0.00 | 0.00 | 100 | 1009.3 |
| 20260904101502 | 67 | 150 | 0.0 | 1.0 | 0.00 | 0.00 | 0.00 | 100 | 1009.3 |
| 20260904101003 | 67 | 150 | 0.0 | 0.0 | 0.00 | 0.00 | 0.00 | 100 | 1009.2 |
| 20260904100502 | 67 | 150 | 0.0 | 0.0 | 0.00 | 0.00 | 0.00 | 100 | 1009.1 |
| 20260904100003 | 67 | 150 | 0.0 | 0.0 | 0.00 | 0.00 | 0.00 | 100 | 1009.2 |
| 20260904095502 | 67 | 150 | 0.0 | 0.0 | 0.00 | 0.00 | 0.00 | 100 | 1009.2 |
| 20260904095003 | 67 | 150 | 0.0 | 1.0 | 0.00 | 0.00 | 0.00 | 100 | 1009.2 |
| 20260904094503 | 67 | 150 | 0.0 | 1.0 | 0.00 | 0.00 | 0.00 | 100 | 1009.1 |
| 20260904094003 | 67 | 150 | 0.0 | 0.0 | 0.00 | 0.00 | 0.00 | 100 | 1009.1 |
| 20260904093503 | 67 | 150 | 0.0 | 0.0 | 0.00 | 0.00 | 0.00 | 100 | 1008.9 |
| 20260904093003 | 68 | 150 | 0.0 | 0.0 | 0.00 | 0.00 | 0.00 | 100 | 1008.9 |
| 20260904092503 | 68 | 150 | 0.0 | 1.0 | 0.00 | 0.00 | 0.00 | 100 | 1008.9 |
| 20260904092002 | 68 | 150 | 0.0 | 1.0 | 0.00 | 0.00 | 0.00 | 100 | 1008.9 |